createdAt,value
2019-06-10T00:00:34.069Z,18.10
2019-06-10T00:03:37.930Z,18.10
2019-06-10T00:06:41.767Z,18.10
2019-06-10T00:09:45.640Z,18.10
2019-06-10T00:12:51.744Z,18.10
2019-06-10T00:15:54.999Z,18.20
2019-06-10T00:19:00.491Z,18.20
2019-06-10T00:22:06.479Z,18.20
2019-06-10T00:25:11.858Z,18.20
2019-06-10T00:28:15.435Z,18.20
2019-06-10T00:31:20.790Z,18.20
2019-06-10T00:34:24.772Z,18.20
2019-06-10T00:37:31.364Z,18.20
2019-06-10T00:40:34.150Z,18.10
2019-06-10T00:43:38.055Z,18.20
2019-06-10T00:46:42.063Z,18.10
2019-06-10T00:49:45.914Z,18.10
2019-06-10T00:52:51.727Z,18.10
2019-06-10T00:55:55.465Z,18.10
2019-06-10T00:59:00.994Z,18.10
2019-06-10T01:02:06.369Z,18.00
2019-06-10T01:05:12.528Z,17.90
2019-06-10T01:08:15.965Z,17.70
2019-06-10T01:11:26.485Z,17.80
2019-06-10T01:14:25.305Z,17.60
2019-06-10T01:17:31.125Z,17.50
2019-06-10T01:20:34.734Z,17.40
2019-06-10T01:23:38.600Z,17.30
2019-06-10T01:26:42.513Z,17.00
2019-06-10T01:29:46.458Z,16.90
2019-06-10T01:32:50.615Z,16.90
2019-06-10T01:35:54.664Z,16.80
2019-06-10T01:38:58.493Z,16.80
2019-06-10T01:42:02.433Z,16.60
2019-06-10T01:45:06.715Z,16.40
2019-06-10T01:48:12.120Z,16.40
2019-06-10T01:51:21.102Z,16.30
2019-06-10T01:54:24.368Z,16.10
2019-06-10T01:57:30.735Z,16.10
2019-06-10T02:00:35.295Z,16.10
2019-06-10T02:03:41.371Z,16.10
2019-06-10T02:06:44.695Z,16.10
2019-06-10T02:09:48.613Z,16.00
2019-06-10T02:12:52.500Z,16.00
2019-06-10T02:15:56.339Z,15.80
2019-06-10T02:19:03.503Z,15.60
2019-06-10T02:22:05.694Z,15.60
2019-06-10T02:25:10.973Z,15.50
2019-06-10T02:28:16.306Z,15.50
2019-06-10T02:31:30.067Z,15.40
2019-06-10T02:34:27.523Z,15.50
2019-06-10T02:37:37.090Z,15.90
2019-06-10T02:40:37.247Z,16.10
2019-06-10T02:43:44.042Z,16.30
2019-06-10T02:46:46.916Z,16.40
2019-06-10T02:50:01.599Z,16.50
2019-06-10T02:52:56.299Z,16.70
2019-06-10T02:56:00.125Z,16.70
2019-06-10T02:59:03.994Z,16.60
2019-06-10T03:02:07.907Z,16.50
2019-06-10T03:05:14.378Z,16.40
2019-06-10T03:08:18.532Z,16.30
2019-06-10T03:11:29.678Z,16.20
2019-06-10T03:14:28.409Z,16.30
2019-06-10T03:17:32.405Z,16.20
2019-06-10T03:20:36.324Z,16.20
2019-06-10T03:23:42.499Z,16.20
2019-06-10T03:26:45.674Z,16.20
2019-06-10T03:29:49.563Z,16.30
2019-06-10T03:32:55.524Z,16.50
2019-06-10T03:35:58.920Z,16.80
2019-06-10T03:39:03.823Z,17.10
2019-06-10T03:42:07.699Z,17.40
2019-06-10T03:45:12.700Z,17.50
2019-06-10T03:48:17.099Z,17.70
2019-06-10T03:51:21.837Z,17.80
2019-06-10T03:54:29.120Z,17.90
2019-06-10T03:57:33.085Z,18.00
2019-06-10T04:00:37.215Z,18.10
2019-06-10T04:03:42.692Z,18.30
2019-06-10T04:06:46.784Z,18.30
2019-06-10T04:09:52.507Z,18.40
2019-06-10T04:12:56.124Z,18.60
2019-06-10T04:16:02.163Z,18.70
2019-06-10T04:19:05.474Z,18.90
2019-06-10T04:22:09.312Z,19.20
2019-06-10T04:25:13.401Z,19.60
2019-06-10T04:28:17.774Z,20.50
2019-06-10T04:31:23.809Z,21.90
2019-06-10T04:34:29.084Z,23.80
2019-06-10T04:37:32.724Z,25.70
2019-06-10T04:40:36.587Z,27.30
2019-06-10T04:43:42.936Z,28.70
2019-06-10T04:46:45.925Z,29.40
2019-06-10T04:49:52.126Z,30.40
2019-06-10T04:52:55.311Z,31.30
2019-06-10T04:55:59.245Z,32.70
2019-06-10T04:59:03.313Z,33.70
2019-06-10T05:02:07.273Z,34.40
2019-06-10T05:05:13.129Z,34.80
2019-06-10T05:08:16.714Z,33.90
2019-06-10T05:11:21.729Z,34.00
2019-06-10T05:14:27.398Z,33.90
2019-06-10T05:17:34.080Z,34.40
2019-06-10T05:20:51.985Z,34.20
2019-06-10T05:23:43.144Z,34.90
2019-06-10T05:26:47.085Z,35.40
2019-06-10T05:29:52.741Z,34.30
2019-06-10T05:32:56.475Z,35.00
2019-06-10T05:36:12.842Z,36.00
2019-06-10T05:39:15.204Z,35.90
2019-06-10T05:42:19.026Z,36.40
2019-06-10T05:45:24.706Z,36.70
2019-06-10T05:48:28.367Z,37.30
2019-06-10T05:51:35.117Z,36.00
2019-06-10T05:54:37.687Z,36.20
2019-06-10T05:57:42.838Z,37.70
2019-06-10T06:00:46.864Z,37.70
2019-06-10T06:03:53.004Z,37.70
2019-06-10T06:06:56.323Z,38.00
2019-06-10T06:10:02.263Z,37.50
2019-06-10T06:13:05.659Z,37.10
2019-06-10T06:16:12.362Z,38.80
2019-06-10T06:19:15.578Z,39.60
2019-06-10T06:22:21.980Z,39.80
2019-06-10T06:25:27.424Z,38.40
2019-06-10T06:31:37.385Z,38.70
2019-06-10T06:34:43.150Z,41.30
2019-06-10T06:37:47.091Z,40.50
2019-06-10T06:40:53.699Z,39.90
2019-06-10T06:43:56.441Z,39.70
2019-06-10T06:47:02.551Z,39.80
2019-06-10T06:50:06.627Z,39.10
2019-06-10T06:53:21.299Z,38.70
2019-06-10T06:56:16.010Z,38.00
2019-06-10T06:59:22.282Z,36.30
2019-06-10T07:02:25.423Z,34.70
2019-06-10T07:05:32.286Z,35.10
2019-06-10T07:08:37.759Z,33.90
2019-06-10T07:11:45.376Z,33.80
2019-06-10T07:14:52.643Z,32.60
2019-06-10T07:17:56.581Z,31.50
2019-06-10T07:21:02.551Z,31.00
2019-06-10T07:24:05.968Z,30.40
2019-06-10T07:27:09.793Z,30.50
2019-06-10T07:30:15.209Z,30.60
2019-06-10T07:33:19.412Z,31.60
2019-06-10T07:36:23.745Z,31.20
2019-06-10T07:39:27.613Z,31.10
2019-06-10T07:42:33.222Z,30.30
2019-06-10T07:45:38.989Z,30.60
2019-06-10T07:48:47.688Z,30.60
2019-06-10T07:51:48.026Z,30.60
2019-06-10T07:54:53.008Z,30.70
2019-06-10T07:57:57.186Z,31.50
2019-06-10T08:01:02.693Z,30.70
2019-06-10T08:04:06.789Z,31.10
2019-06-10T08:07:12.488Z,31.50
2019-06-10T08:10:16.379Z,31.70
2019-06-10T08:13:22.507Z,31.20
2019-06-10T08:16:25.966Z,31.00
2019-06-10T08:19:35.746Z,30.70
2019-06-10T08:22:41.732Z,30.90
2019-06-10T08:25:43.769Z,29.50
2019-06-10T08:28:48.247Z,29.30
2019-06-10T08:31:53.181Z,29.80
2019-06-10T08:34:57.356Z,30.20
2019-06-10T08:38:02.439Z,30.20
2019-06-10T08:41:06.471Z,29.80
2019-06-10T08:44:12.432Z,29.50
2019-06-10T08:47:15.859Z,29.60
2019-06-10T08:50:22.278Z,29.20
2019-06-10T08:53:25.290Z,29.00
2019-06-10T08:56:32.570Z,29.20
2019-06-10T08:59:35.913Z,29.40
2019-06-10T09:02:41.917Z,29.30
2019-06-10T09:05:47.808Z,29.60
2019-06-10T09:08:53.879Z,30.10
2019-06-10T09:11:56.291Z,29.80
2019-06-10T09:15:03.177Z,30.20
2019-06-10T09:18:05.810Z,30.30
2019-06-10T09:21:09.726Z,30.00
2019-06-10T09:24:13.564Z,30.30
2019-06-10T09:27:17.440Z,30.40
2019-06-10T09:30:23.287Z,30.50
2019-06-10T09:33:27.197Z,30.30
2019-06-10T09:36:32.552Z,29.80
2019-06-10T09:39:36.541Z,30.20
2019-06-10T09:42:44.540Z,30.00
2019-06-10T09:45:49.132Z,29.80
2019-06-10T09:48:55.832Z,29.60
2019-06-10T09:51:59.048Z,29.50
2019-06-10T09:55:03.276Z,29.90
2019-06-10T09:58:07.815Z,29.80
2019-06-10T10:01:13.389Z,29.80
2019-06-10T10:04:17.393Z,29.90
2019-06-10T10:07:22.632Z,29.50
2019-06-10T10:10:35.614Z,29.60
2019-06-10T10:13:39.454Z,29.90
2019-06-10T10:16:47.892Z,30.10
2019-06-10T10:19:50.230Z,30.00
2019-06-10T10:22:55.499Z,30.30
2019-06-10T10:25:59.379Z,30.20
2019-06-10T10:29:03.350Z,30.00
2019-06-10T10:32:07.215Z,30.30
2019-06-10T10:35:12.645Z,30.30
2019-06-10T10:38:16.685Z,30.10
2019-06-10T10:41:23.198Z,30.40
2019-06-10T10:44:26.056Z,30.10
2019-06-10T10:47:33.314Z,30.40
2019-06-10T10:50:35.728Z,30.50
2019-06-10T10:53:39.621Z,30.60
2019-06-10T10:56:45.709Z,30.30
2019-06-10T10:59:49.512Z,30.60
2019-06-10T11:02:54.372Z,30.70
2019-06-10T11:06:00.937Z,30.40
2019-06-10T11:09:05.325Z,30.50
2019-06-10T11:12:09.235Z,30.70
2019-06-10T11:15:16.015Z,30.90
2019-06-10T11:18:22.334Z,30.80
2019-06-10T11:21:25.410Z,30.70
2019-06-10T11:24:37.805Z,30.70
2019-06-10T11:27:34.956Z,30.60
2019-06-10T11:30:39.054Z,30.70
2019-06-10T11:33:43.710Z,30.70
2019-06-10T11:36:47.958Z,30.60
2019-06-10T11:39:52.323Z,30.70
2019-06-10T11:42:59.517Z,30.40
2019-06-10T11:46:07.212Z,30.60
2019-06-10T11:49:07.354Z,30.80
2019-06-10T11:52:12.597Z,31.00
2019-06-10T11:55:19.325Z,31.30
2019-06-10T11:58:22.525Z,31.00
2019-06-10T12:01:26.409Z,31.10
2019-06-10T12:04:30.350Z,31.50
2019-06-10T12:07:34.227Z,31.40
2019-06-10T12:10:38.070Z,31.20
2019-06-10T12:13:42.783Z,31.40
2019-06-10T12:19:56.471Z,31.30
2019-06-10T12:22:58.806Z,31.50
2019-06-10T12:26:04.811Z,31.40
2019-06-10T12:29:09.039Z,31.40
2019-06-10T12:32:13.501Z,31.50
2019-06-10T12:35:17.744Z,31.60
2019-06-10T12:38:22.772Z,31.90
2019-06-10T12:41:27.552Z,31.70
2019-06-10T12:44:33.715Z,32.00
2019-06-10T12:47:37.063Z,31.90
2019-06-10T12:50:42.871Z,32.10
2019-06-10T12:53:46.903Z,32.20
2019-06-10T12:56:52.802Z,32.30
2019-06-10T12:59:56.386Z,32.10
2019-06-10T13:03:03.568Z,32.30
2019-06-10T13:06:08.983Z,32.00
2019-06-10T13:09:13.009Z,32.10
2019-06-10T13:12:16.873Z,32.20
2019-06-10T13:15:22.244Z,32.10
2019-06-10T13:18:27.803Z,32.10
2019-06-10T13:21:33.003Z,32.00
2019-06-10T13:24:37.215Z,32.20
2019-06-10T13:27:42.845Z,32.20
2019-06-10T13:30:46.652Z,32.40
2019-06-10T13:33:52.753Z,32.40
2019-06-10T13:36:56.726Z,32.30
2019-06-10T13:40:02.247Z,32.20
2019-06-10T13:43:06.131Z,32.20
2019-06-10T13:46:10.976Z,32.00
2019-06-10T13:49:15.481Z,32.10
2019-06-10T13:52:19.486Z,32.20
2019-06-10T13:55:23.304Z,32.30
2019-06-10T13:58:27.181Z,32.30
2019-06-10T14:01:34.949Z,32.20
2019-06-10T14:04:36.645Z,32.30
2019-06-10T14:07:40.450Z,32.40
2019-06-10T14:10:44.340Z,32.60
2019-06-10T14:13:48.480Z,32.60
2019-06-10T14:16:53.984Z,32.40
2019-06-10T14:19:58.232Z,32.30
2019-06-10T14:23:02.569Z,32.40
2019-06-10T14:26:09.538Z,32.30
2019-06-10T14:29:15.882Z,32.10
2019-06-10T14:32:19.515Z,32.10
2019-06-10T14:35:26.683Z,32.00
2019-06-10T14:38:28.916Z,32.10
2019-06-10T14:41:32.796Z,32.20
2019-06-10T14:44:36.593Z,32.10
2019-06-10T14:47:42.995Z,31.90
2019-06-10T14:50:45.923Z,32.00
2019-06-10T14:53:49.812Z,31.80
2019-06-10T14:56:57.109Z,31.90
2019-06-10T14:59:59.183Z,31.90
2019-06-10T15:03:05.674Z,31.80
2019-06-10T15:06:09.183Z,31.80
2019-06-10T15:09:13.695Z,31.80
2019-06-10T15:12:17.706Z,31.70
2019-06-10T15:15:23.713Z,31.70
2019-06-10T15:18:27.257Z,31.80
2019-06-10T15:21:32.364Z,31.80
2019-06-10T15:24:36.422Z,31.60
2019-06-10T15:27:42.753Z,31.30
2019-06-10T15:30:46.147Z,31.40
2019-06-10T15:33:52.289Z,31.40
2019-06-10T15:36:55.554Z,31.40
2019-06-10T15:39:59.380Z,31.30
2019-06-10T15:43:06.200Z,31.10
2019-06-10T15:46:09.886Z,31.20
2019-06-10T15:49:17.573Z,31.20
2019-06-10T15:52:20.644Z,31.10
2019-06-10T15:55:49.326Z,31.00
2019-06-10T15:58:32.122Z,30.90
2019-06-10T16:01:36.117Z,31.00
2019-06-10T16:04:40.034Z,31.00
2019-06-10T16:07:44.130Z,31.00
2019-06-10T16:10:48.018Z,30.90
2019-06-10T16:13:53.379Z,30.90
2019-06-10T16:16:57.414Z,30.90
2019-06-10T16:20:03.668Z,30.90
2019-06-10T16:23:06.937Z,30.80
2019-06-10T16:26:13.080Z,30.60
2019-06-10T16:29:17.074Z,30.60
2019-06-10T16:32:23.261Z,30.60
2019-06-10T16:35:27.046Z,30.40
2019-06-10T16:38:32.853Z,30.40
2019-06-10T16:41:36.850Z,30.30
2019-06-10T16:44:42.337Z,30.30
2019-06-10T16:47:46.420Z,30.30
2019-06-10T16:50:53.989Z,30.20
2019-06-10T16:53:55.894Z,30.00
2019-06-10T16:56:59.825Z,29.90
2019-06-10T17:00:11.309Z,29.80
2019-06-10T17:03:12.824Z,29.70
2019-06-10T17:06:17.438Z,29.50
2019-06-10T17:09:23.519Z,29.40
2019-06-10T17:12:27.656Z,29.20
2019-06-10T17:15:31.766Z,29.20
2019-06-10T17:18:35.690Z,29.10
2019-06-10T17:21:42.054Z,29.00
2019-06-10T17:24:45.190Z,28.90
2019-06-10T17:27:49.184Z,28.80
2019-06-10T17:30:54.494Z,28.70
2019-06-10T17:33:58.456Z,28.60
2019-06-10T17:37:03.145Z,28.50
2019-06-10T17:40:08.027Z,28.40
2019-06-10T17:43:12.130Z,28.30
2019-06-10T17:46:18.907Z,28.20
2019-06-10T17:49:25.462Z,28.10
2019-06-10T17:52:28.382Z,28.00
2019-06-10T17:55:34.067Z,27.80
2019-06-10T17:58:53.416Z,27.70
2019-06-10T18:01:43.651Z,27.70
2019-06-10T18:04:47.920Z,27.60
2019-06-10T18:07:52.749Z,27.50
2019-06-10T18:10:57.056Z,27.40
2019-06-10T18:14:02.691Z,27.30
2019-06-10T18:17:06.737Z,27.20
2019-06-10T18:20:13.582Z,27.10
2019-06-10T18:23:16.839Z,27.10
2019-06-10T18:26:23.146Z,27.00
2019-06-10T18:29:27.171Z,27.00
2019-06-10T18:32:32.851Z,26.90
2019-06-10T18:35:37.649Z,26.80
2019-06-10T18:38:43.417Z,26.80
2019-06-10T18:41:47.291Z,26.80
2019-06-10T18:44:52.247Z,26.70
2019-06-10T18:47:56.462Z,26.70
2019-06-10T18:51:00.451Z,26.70
2019-06-10T18:54:04.484Z,26.50
2019-06-10T18:57:08.864Z,26.50
2019-06-10T19:00:15.203Z,26.50
2019-06-10T19:03:19.225Z,26.50
2019-06-10T19:06:23.541Z,26.40
2019-06-10T19:09:28.974Z,26.30
2019-06-10T19:12:34.044Z,26.30
2019-06-10T19:15:39.782Z,26.20
2019-06-10T19:18:44.173Z,26.10
2019-06-10T19:22:01.849Z,26.10
2019-06-10T19:24:54.056Z,26.10
2019-06-10T19:27:57.976Z,26.00
2019-06-10T19:31:02.402Z,26.00
2019-06-10T19:34:06.466Z,25.90
2019-06-10T19:37:12.750Z,25.80
2019-06-10T19:40:16.414Z,25.80
2019-06-10T19:43:20.394Z,25.70
2019-06-10T19:46:24.294Z,25.70
2019-06-10T19:49:28.238Z,25.60
2019-06-10T19:52:33.543Z,25.60
2019-06-10T19:55:38.960Z,25.50
2019-06-10T19:58:44.432Z,25.50
2019-06-10T20:01:48.939Z,25.40
2019-06-10T20:04:53.164Z,25.30
2019-06-10T20:07:57.277Z,25.30
2019-06-10T20:11:03.248Z,25.30
2019-06-10T20:14:07.007Z,25.20
2019-06-10T20:17:13.238Z,25.10
2019-06-10T20:20:16.936Z,25.10
2019-06-10T20:23:21.154Z,25.10
2019-06-10T20:26:27.817Z,25.10
2019-06-10T20:29:32.824Z,24.90
2019-06-10T20:32:37.184Z,24.80
2019-06-10T20:35:42.141Z,24.50
2019-06-10T20:38:48.876Z,24.30
2019-06-10T20:41:55.812Z,24.00
2019-06-10T20:45:08.492Z,23.80
2019-06-10T20:48:13.471Z,23.60
2019-06-10T20:51:17.511Z,23.30
2019-06-10T20:54:23.197Z,23.10
2019-06-10T20:57:27.331Z,22.90
2019-06-10T21:00:42.010Z,22.70
2019-06-10T21:03:47.006Z,22.50
2019-06-10T21:06:52.992Z,22.30
2019-06-10T21:09:59.136Z,22.10
2019-06-10T21:13:03.658Z,22.30
2019-06-10T21:16:07.636Z,22.30
2019-06-10T21:19:11.505Z,22.10
2019-06-10T21:22:15.543Z,22.00
2019-06-10T21:25:19.446Z,21.80
2019-06-10T21:28:23.379Z,22.00
2019-06-10T21:31:29.485Z,21.60
2019-06-10T21:34:32.929Z,21.60
2019-06-10T21:37:36.813Z,21.50
2019-06-10T21:40:42.509Z,21.40
2019-06-10T21:43:49.854Z,21.10
2019-06-10T21:46:52.347Z,20.80
2019-06-10T21:49:56.287Z,20.70
2019-06-10T21:53:02.634Z,20.70
2019-06-10T21:56:05.663Z,20.60
2019-06-10T21:59:09.520Z,20.50
2019-06-10T22:02:13.425Z,20.30
2019-06-10T22:05:17.251Z,20.30
2019-06-10T22:08:21.131Z,20.10
2019-06-10T22:11:24.983Z,20.00
2019-06-10T22:14:29.081Z,20.40
2019-06-10T22:17:32.945Z,20.00
2019-06-10T22:20:36.897Z,20.00
2019-06-10T22:23:42.374Z,19.80
2019-06-10T22:26:46.837Z,19.70
2019-06-10T22:29:51.928Z,19.60
2019-06-10T22:32:57.814Z,19.50
2019-06-10T22:36:02.398Z,19.30
2019-06-10T22:39:06.534Z,19.30
2019-06-10T22:42:12.225Z,19.20
2019-06-10T22:45:15.925Z,19.00
2019-06-10T22:48:19.811Z,19.00
2019-06-10T22:51:24.236Z,18.90
2019-06-10T22:54:28.160Z,18.80
2019-06-10T22:57:31.979Z,18.70
2019-06-10T23:00:35.865Z,18.60
2019-06-10T23:03:39.764Z,18.50
2019-06-10T23:06:43.683Z,18.50
2019-06-10T23:09:48.620Z,18.60
2019-06-10T23:12:54.723Z,18.50
2019-06-10T23:15:58.659Z,18.30
2019-06-10T23:19:03.655Z,18.20
2019-06-10T23:22:07.531Z,18.20
2019-06-10T23:25:12.675Z,18.20
2019-06-10T23:28:16.724Z,18.10
2019-06-10T23:31:22.860Z,18.10
2019-06-10T23:34:26.105Z,18.00
2019-06-10T23:37:32.108Z,17.90
2019-06-10T23:40:35.465Z,17.90
2019-06-10T23:43:39.364Z,17.90
2019-06-10T23:46:43.302Z,17.80
2019-06-10T23:49:47.114Z,17.70
2019-06-10T23:52:54.125Z,17.70
2019-06-10T23:55:57.979Z,17.60
2019-06-10T23:59:03.496Z,17.60
